createdAt,value
2022-08-19T00:01:22.010Z,17.85
2022-08-19T00:06:30.744Z,17.85
2022-08-19T00:11:39.854Z,17.85
2022-08-19T00:16:48.152Z,17.85
2022-08-19T00:21:56.250Z,17.85
2022-08-19T00:27:03.409Z,17.85
2022-08-19T00:32:11.925Z,17.85
2022-08-19T00:37:20.008Z,17.65
2022-08-19T00:42:27.384Z,17.65
2022-08-19T00:47:35.772Z,17.65
2022-08-19T00:52:43.678Z,17.65
2022-08-19T00:57:51.723Z,17.65
2022-08-19T01:03:00.206Z,17.65
2022-08-19T01:08:07.626Z,17.85
2022-08-19T01:13:15.098Z,17.85
2022-08-19T01:18:22.886Z,17.85
2022-08-19T01:23:29.503Z,17.85
2022-08-19T01:28:37.084Z,17.85
2022-08-19T01:33:50.869Z,17.65
2022-08-19T01:38:58.218Z,17.65
2022-08-19T01:44:06.266Z,17.65
2022-08-19T01:49:14.482Z,17.45
2022-08-19T01:54:23.439Z,17.45
2022-08-19T01:59:32.751Z,17.45
2022-08-19T02:04:41.044Z,17.45
2022-08-19T02:09:49.153Z,17.45
2022-08-19T02:14:56.869Z,17.45
2022-08-19T02:20:04.571Z,17.45
2022-08-19T02:25:12.372Z,17.45
2022-08-19T02:30:19.329Z,17.65
2022-08-19T02:35:27.447Z,17.45
2022-08-19T02:40:34.598Z,17.45
2022-08-19T02:45:42.592Z,17.45
2022-08-19T02:55:47.634Z,17.45
2022-08-19T03:00:53.683Z,17.65
2022-08-19T03:06:01.827Z,17.65
2022-08-19T03:11:09.018Z,17.65
2022-08-19T03:16:17.377Z,17.65
2022-08-19T03:21:24.898Z,17.65
2022-08-19T03:26:31.919Z,17.65
2022-08-19T03:31:39.769Z,17.45
2022-08-19T03:36:46.955Z,17.45
2022-08-19T03:41:54.138Z,17.45
2022-08-19T03:47:02.823Z,17.25
2022-08-19T03:52:09.997Z,17.25
2022-08-19T03:57:17.650Z,17.25
2022-08-19T04:02:24.414Z,17.45
2022-08-19T04:07:32.975Z,17.45
2022-08-19T04:12:41.587Z,17.65
2022-08-19T04:17:49.947Z,17.65
2022-08-19T04:22:57.529Z,17.85
2022-08-19T04:28:05.169Z,18.05
2022-08-19T04:33:13.197Z,18.35
2022-08-19T04:38:21.017Z,18.35
2022-08-19T04:43:28.483Z,18.55
2022-08-19T04:48:36.064Z,18.55
2022-08-19T04:53:44.707Z,18.75
2022-08-19T04:58:52.566Z,18.95
2022-08-19T05:04:00.249Z,18.95
2022-08-19T05:09:09.121Z,19.15
2022-08-19T05:14:16.545Z,19.35
2022-08-19T05:19:23.737Z,19.35
2022-08-19T05:24:32.178Z,19.35
2022-08-19T05:29:41.606Z,19.65
2022-08-19T05:34:50.964Z,19.65
2022-08-19T05:40:00.275Z,19.85
2022-08-19T05:45:07.424Z,19.85
2022-08-19T05:50:15.290Z,19.85
2022-08-19T05:55:23.313Z,19.85
2022-08-19T06:00:29.728Z,19.85
2022-08-19T06:05:36.892Z,19.85
2022-08-19T06:10:45.276Z,20.05
2022-08-19T06:15:53.696Z,20.25
2022-08-19T06:21:03.650Z,20.45
2022-08-19T06:26:10.821Z,20.95
2022-08-19T06:31:18.239Z,21.15
2022-08-19T06:36:25.950Z,21.35
2022-08-19T06:41:34.715Z,21.75
2022-08-19T06:46:42.133Z,22.05
2022-08-19T06:51:50.438Z,22.25
2022-08-19T06:56:58.157Z,22.45
2022-08-19T07:02:06.442Z,22.65
2022-08-19T07:07:15.929Z,23.35
2022-08-19T07:12:24.788Z,23.75
2022-08-19T07:17:32.525Z,24.45
2022-08-19T07:22:40.812Z,24.65
2022-08-19T07:27:48.907Z,24.95
2022-08-19T07:32:55.922Z,25.35
2022-08-19T07:38:03.782Z,25.55
2022-08-19T07:43:12.094Z,26.25
2022-08-19T07:48:20.212Z,26.75
2022-08-19T07:53:27.900Z,27.45
2022-08-19T07:58:36.892Z,27.85
2022-08-19T08:03:44.239Z,28.35
2022-08-19T08:08:50.814Z,28.35
2022-08-19T08:13:59.193Z,28.55
2022-08-19T08:19:07.370Z,28.75
2022-08-19T08:24:16.078Z,28.75
2022-08-19T08:29:23.418Z,29.05
2022-08-19T08:34:31.449Z,29.05
2022-08-19T08:39:39.670Z,29.45
2022-08-19T08:44:47.453Z,29.75
2022-08-19T08:49:54.785Z,30.15
2022-08-19T08:55:01.338Z,30.65
2022-08-19T09:00:08.543Z,30.85
2022-08-19T09:05:15.090Z,30.85
2022-08-19T09:10:23.584Z,30.85
2022-08-19T09:15:30.781Z,31.35
2022-08-19T09:20:38.604Z,31.35
2022-08-19T09:25:47.610Z,31.55
2022-08-19T09:30:55.192Z,31.55
2022-08-19T09:36:03.292Z,31.55
2022-08-19T09:41:10.653Z,31.15
2022-08-19T09:46:17.212Z,30.85
2022-08-19T09:51:24.565Z,30.85
2022-08-19T09:56:32.464Z,30.65
2022-08-19T10:02:21.715Z,30.15
2022-08-19T10:07:30.014Z,29.75
2022-08-19T10:12:37.660Z,29.75
2022-08-19T10:17:44.950Z,29.75
2022-08-19T10:22:54.255Z,29.75
2022-08-19T10:28:01.006Z,29.75
2022-08-19T10:33:09.017Z,29.95
2022-08-19T10:38:21.968Z,30.15
2022-08-19T10:43:31.528Z,30.45
2022-08-19T10:48:39.776Z,30.45
2022-08-19T10:53:47.134Z,30.65
2022-08-19T10:58:54.569Z,30.85
2022-08-19T11:04:01.691Z,31.55
2022-08-19T11:09:10.382Z,32.55
2022-08-19T11:14:18.091Z,33.25
2022-08-19T11:19:26.300Z,33.95
2022-08-19T11:24:33.866Z,34.65
2022-08-19T11:29:41.687Z,35.15
2022-08-19T11:34:48.344Z,35.15
2022-08-19T11:39:56.140Z,35.65
2022-08-19T11:45:03.450Z,35.65
2022-08-19T11:50:10.407Z,35.15
2022-08-19T11:55:18.217Z,34.65
2022-08-19T12:00:25.989Z,33.95
2022-08-19T12:05:35.000Z,33.75
2022-08-19T12:10:42.798Z,33.25
2022-08-19T12:15:49.984Z,32.75
2022-08-19T12:20:57.187Z,32.55
2022-08-19T12:26:05.018Z,32.05
2022-08-19T12:31:12.377Z,31.85
2022-08-19T12:36:19.996Z,31.35
2022-08-19T12:41:29.132Z,31.15
2022-08-19T12:46:35.769Z,31.15
2022-08-19T12:51:43.618Z,31.35
2022-08-19T12:56:51.826Z,31.85
2022-08-19T13:01:59.854Z,32.05
2022-08-19T13:07:07.739Z,32.05
2022-08-19T13:12:14.978Z,31.85
2022-08-19T13:17:22.654Z,31.55
2022-08-19T13:22:33.346Z,31.35
2022-08-19T13:27:40.598Z,31.15
2022-08-19T13:32:47.589Z,30.85
2022-08-19T13:37:55.797Z,30.65
2022-08-19T13:43:02.859Z,30.45
2022-08-19T13:48:09.829Z,29.95
2022-08-19T13:53:17.660Z,29.95
2022-08-19T13:58:24.855Z,29.75
2022-08-19T14:03:33.731Z,29.75
2022-08-19T14:08:41.464Z,29.95
2022-08-19T14:13:50.116Z,30.65
2022-08-19T14:19:00.567Z,31.55
2022-08-19T14:24:10.745Z,32.55
2022-08-19T14:29:18.619Z,33.05
2022-08-19T14:34:26.534Z,33.25
2022-08-19T14:39:33.977Z,33.75
2022-08-19T14:44:41.812Z,33.95
2022-08-19T14:49:50.088Z,34.15
2022-08-19T14:54:56.885Z,34.45
2022-08-19T15:00:04.694Z,34.45
2022-08-19T15:05:17.015Z,34.45
2022-08-19T15:10:22.969Z,34.15
2022-08-19T15:15:30.517Z,34.45
2022-08-19T15:20:37.369Z,34.15
2022-08-19T15:25:44.242Z,33.95
2022-08-19T15:30:51.715Z,33.75
2022-08-19T15:35:58.278Z,33.45
2022-08-19T15:41:05.491Z,33.45
2022-08-19T15:46:13.289Z,33.75
2022-08-19T15:51:19.895Z,33.45
2022-08-19T15:56:27.128Z,33.45
2022-08-19T16:01:34.727Z,33.25
2022-08-19T16:06:41.661Z,33.05
2022-08-19T16:11:49.818Z,32.55
2022-08-19T16:16:57.202Z,32.25
2022-08-19T16:22:05.666Z,31.85
2022-08-19T16:27:12.878Z,31.35
2022-08-19T16:32:21.186Z,30.85
2022-08-19T16:37:27.897Z,30.65
2022-08-19T16:42:35.825Z,30.45
2022-08-19T16:47:43.014Z,30.15
2022-08-19T16:52:51.123Z,29.95
2022-08-19T16:57:59.186Z,29.45
2022-08-19T17:03:08.095Z,29.25
2022-08-19T17:08:15.639Z,29.05
2022-08-19T17:13:23.255Z,28.55
2022-08-19T17:18:30.614Z,28.35
2022-08-19T17:23:38.651Z,28.05
2022-08-19T17:28:45.050Z,27.85
2022-08-19T17:33:52.218Z,27.45
2022-08-19T17:38:58.778Z,26.95
2022-08-19T17:44:07.825Z,26.75
2022-08-19T17:49:15.669Z,26.75
2022-08-19T17:54:23.319Z,26.05
2022-08-19T17:59:30.187Z,26.05
2022-08-19T18:04:38.326Z,25.55
2022-08-19T18:09:46.445Z,25.35
2022-08-19T18:14:54.295Z,25.15
2022-08-19T18:20:02.490Z,24.95
2022-08-19T18:25:09.373Z,24.65
2022-08-19T18:30:17.442Z,24.25
2022-08-19T18:35:25.386Z,24.05
2022-08-19T18:40:32.473Z,23.75
2022-08-19T18:45:40.462Z,23.55
2022-08-19T18:50:47.293Z,23.55
2022-08-19T18:55:55.651Z,23.35
2022-08-19T19:01:03.322Z,23.15
2022-08-19T19:06:11.890Z,22.95
2022-08-19T19:11:19.764Z,22.95
2022-08-19T19:16:26.877Z,22.95
2022-08-19T19:21:35.145Z,22.65
2022-08-19T19:26:43.039Z,22.65
2022-08-19T19:31:49.714Z,22.65
2022-08-19T19:36:57.214Z,22.45
2022-08-19T19:42:04.378Z,22.45
2022-08-19T19:47:12.843Z,22.25
2022-08-19T19:52:20.550Z,22.25
2022-08-19T19:57:28.680Z,22.25
2022-08-19T20:02:36.075Z,22.25
2022-08-19T20:07:44.726Z,22.25
2022-08-19T20:12:52.054Z,22.05
2022-08-19T20:18:00.410Z,22.05
2022-08-19T20:23:08.638Z,22.05
2022-08-19T20:28:16.426Z,22.05
2022-08-19T20:33:23.463Z,22.05
2022-08-19T20:38:30.668Z,21.75
2022-08-19T20:43:37.865Z,21.75
2022-08-19T20:48:45.059Z,21.55
2022-08-19T20:53:52.257Z,21.55
2022-08-19T20:58:59.716Z,21.55
2022-08-19T21:04:07.813Z,21.55
2022-08-19T21:09:16.199Z,21.55
2022-08-19T21:14:25.040Z,21.55
2022-08-19T21:19:33.400Z,21.35
2022-08-19T21:24:40.601Z,21.35
2022-08-19T21:29:49.085Z,21.35
2022-08-19T21:34:56.851Z,21.15
2022-08-19T21:40:04.554Z,21.15
2022-08-19T21:45:13.119Z,21.15
2022-08-19T21:50:20.464Z,21.15
2022-08-19T21:55:26.933Z,20.95
2022-08-19T22:00:34.171Z,20.65
2022-08-19T22:05:42.278Z,20.45
2022-08-19T22:10:56.448Z,20.25
2022-08-19T22:16:05.120Z,20.25
2022-08-19T22:21:13.728Z,20.05
2022-08-19T22:26:20.377Z,20.05
2022-08-19T22:31:27.727Z,19.85
2022-08-19T22:36:35.560Z,19.65
2022-08-19T22:41:43.762Z,19.65
2022-08-19T22:46:50.583Z,19.65
2022-08-19T22:51:58.301Z,19.65
2022-08-19T22:57:09.560Z,19.65
2022-08-19T22:58:43.077Z,19.65
2022-08-19T23:03:49.977Z,19.65
2022-08-19T23:08:56.572Z,19.65
2022-08-19T23:14:05.016Z,19.65
2022-08-19T23:19:13.102Z,19.65
2022-08-19T23:24:21.726Z,19.65
2022-08-19T23:29:29.769Z,19.35
2022-08-19T23:34:37.049Z,19.35
2022-08-19T23:39:43.573Z,19.35
2022-08-19T23:44:51.449Z,19.35
2022-08-19T23:50:00.408Z,19.35
2022-08-19T23:55:09.512Z,19.35
